sensor_id;sensor_type;location;lat;lon;timestamp;pressure;altitude;pressure_sealevel;temperature;humidity
19526;BME280;9907;42.676;26.348;2022-11-20T00:02:24;98563.47;;;15.86;100.00
19526;BME280;9907;42.676;26.348;2022-11-20T00:04:49;98559.09;;;15.85;100.00
19526;BME280;9907;42.676;26.348;2022-11-20T00:07:15;98569.88;;;15.85;100.00
19526;BME280;9907;42.676;26.348;2022-11-20T00:09:40;98555.59;;;15.85;100.00
19526;BME280;9907;42.676;26.348;2022-11-20T00:12:06;98565.31;;;15.86;100.00
19526;BME280;9907;42.676;26.348;2022-11-20T00:14:31;98573.41;;;15.86;100.00
19526;BME280;9907;42.676;26.348;2022-11-20T00:16:57;98583.16;;;15.87;100.00
19526;BME280;9907;42.676;26.348;2022-11-20T00:19:22;98585.84;;;15.87;100.00
19526;BME280;9907;42.676;26.348;2022-11-20T00:21:47;98574.25;;;15.86;100.00
19526;BME280;9907;42.676;26.348;2022-11-20T00:24:16;98567.84;;;15.87;100.00
19526;BME280;9907;42.676;26.348;2022-11-20T00:26:42;98574.72;;;15.90;100.00
19526;BME280;9907;42.676;26.348;2022-11-20T00:29:08;98578.06;;;15.92;100.00
19526;BME280;9907;42.676;26.348;2022-11-20T00:31:35;98570.47;;;15.95;100.00
19526;BME280;9907;42.676;26.348;2022-11-20T00:34:00;98585.78;;;15.95;100.00
19526;BME280;9907;42.676;26.348;2022-11-20T00:36:27;98574.16;;;15.94;100.00
19526;BME280;9907;42.676;26.348;2022-11-20T00:38:55;98575.19;;;15.93;100.00
19526;BME280;9907;42.676;26.348;2022-11-20T00:41:21;98565.63;;;15.91;100.00
19526;BME280;9907;42.676;26.348;2022-11-20T00:43:46;98566.63;;;15.90;100.00
19526;BME280;9907;42.676;26.348;2022-11-20T00:46:14;98541.75;;;15.88;100.00
19526;BME280;9907;42.676;26.348;2022-11-20T00:48:40;98556.91;;;15.89;100.00
19526;BME280;9907;42.676;26.348;2022-11-20T00:51:06;98564.13;;;15.88;100.00
19526;BME280;9907;42.676;26.348;2022-11-20T00:53:31;98564.13;;;15.88;100.00
19526;BME280;9907;42.676;26.348;2022-11-20T00:56:03;98553.69;;;15.85;100.00
19526;BME280;9907;42.676;26.348;2022-11-20T00:58:31;98553.06;;;15.83;100.00
19526;BME280;9907;42.676;26.348;2022-11-20T01:01:11;98556.97;;;15.81;100.00
19526;BME280;9907;42.676;26.348;2022-11-20T01:03:39;98564.38;;;15.79;100.00
19526;BME280;9907;42.676;26.348;2022-11-20T01:06:07;98547.56;;;15.77;100.00
19526;BME280;9907;42.676;26.348;2022-11-20T01:08:35;98534.94;;;15.77;100.00
19526;BME280;9907;42.676;26.348;2022-11-20T01:11:06;98544.69;;;15.78;100.00
19526;BME280;9907;42.676;26.348;2022-11-20T01:13:32;98543.03;;;15.77;100.00
19526;BME280;9907;42.676;26.348;2022-11-20T01:16:14;98539.88;;;15.74;100.00
19526;BME280;9907;42.676;26.348;2022-11-20T01:18:42;98546.25;;;15.73;100.00
19526;BME280;9907;42.676;26.348;2022-11-20T01:21:11;98540.88;;;15.73;100.00
19526;BME280;9907;42.676;26.348;2022-11-20T01:23:38;98542.66;;;15.80;100.00
19526;BME280;9907;42.676;26.348;2022-11-20T01:26:11;98542.13;;;15.85;100.00
19526;BME280;9907;42.676;26.348;2022-11-20T01:28:37;98550.66;;;15.88;100.00
19526;BME280;9907;42.676;26.348;2022-11-20T01:31:12;98555.22;;;15.88;100.00
19526;BME280;9907;42.676;26.348;2022-11-20T01:33:39;98567.31;;;15.92;100.00
19526;BME280;9907;42.676;26.348;2022-11-20T01:36:06;98560.69;;;15.94;100.00
19526;BME280;9907;42.676;26.348;2022-11-20T01:38:32;98554.56;;;16.00;100.00
19526;BME280;9907;42.676;26.348;2022-11-20T01:40:57;98560.25;;;16.05;100.00
19526;BME280;9907;42.676;26.348;2022-11-20T01:43:23;98561.56;;;16.10;100.00
19526;BME280;9907;42.676;26.348;2022-11-20T01:48:28;98558.44;;;16.21;100.00
19526;BME280;9907;42.676;26.348;2022-11-20T01:50:55;98550.97;;;16.23;100.00
19526;BME280;9907;42.676;26.348;2022-11-20T01:53:25;98558.88;;;16.24;100.00
19526;BME280;9907;42.676;26.348;2022-11-20T01:55:55;98545.03;;;16.27;100.00
19526;BME280;9907;42.676;26.348;2022-11-20T01:58:27;98556.28;;;16.45;100.00
19526;BME280;9907;42.676;26.348;2022-11-20T02:00:53;98552.41;;;16.48;100.00
19526;BME280;9907;42.676;26.348;2022-11-20T02:03:19;98540.78;;;16.47;100.00
19526;BME280;9907;42.676;26.348;2022-11-20T02:08:24;98539.94;;;16.47;100.00
19526;BME280;9907;42.676;26.348;2022-11-20T02:10:50;98530.63;;;16.49;100.00
19526;BME280;9907;42.676;26.348;2022-11-20T02:13:16;98541.03;;;16.52;100.00
19526;BME280;9907;42.676;26.348;2022-11-20T02:16:00;98526.38;;;16.55;100.00
19526;BME280;9907;42.676;26.348;2022-11-20T02:18:26;98532.25;;;16.59;100.00
19526;BME280;9907;42.676;26.348;2022-11-20T02:21:00;98527.69;;;16.59;100.00
19526;BME280;9907;42.676;26.348;2022-11-20T02:23:53;98542.00;;;16.60;100.00
19526;BME280;9907;42.676;26.348;2022-11-20T02:26:19;98542.19;;;16.58;100.00
19526;BME280;9907;42.676;26.348;2022-11-20T02:28:46;98543.66;;;16.61;100.00
19526;BME280;9907;42.676;26.348;2022-11-20T02:31:11;98543.50;;;16.62;100.00
19526;BME280;9907;42.676;26.348;2022-11-20T02:33:37;98549.16;;;16.67;100.00
19526;BME280;9907;42.676;26.348;2022-11-20T02:36:02;98523.41;;;16.65;100.00
19526;BME280;9907;42.676;26.348;2022-11-20T02:38:28;98516.16;;;16.65;100.00
19526;BME280;9907;42.676;26.348;2022-11-20T02:40:53;98514.94;;;16.68;100.00
19526;BME280;9907;42.676;26.348;2022-11-20T02:43:19;98509.38;;;16.69;100.00
19526;BME280;9907;42.676;26.348;2022-11-20T02:45:44;98516.91;;;16.74;100.00
19526;BME280;9907;42.676;26.348;2022-11-20T02:48:10;98517.69;;;16.74;100.00
19526;BME280;9907;42.676;26.348;2022-11-20T02:50:39;98518.75;;;16.73;100.00
19526;BME280;9907;42.676;26.348;2022-11-20T02:53:05;98507.13;;;16.73;100.00
19526;BME280;9907;42.676;26.348;2022-11-20T02:55:31;98518.75;;;16.73;100.00
19526;BME280;9907;42.676;26.348;2022-11-20T02:57:56;98524.31;;;16.72;100.00
19526;BME280;9907;42.676;26.348;2022-11-20T03:00:22;98533.78;;;16.82;100.00
19526;BME280;9907;42.676;26.348;2022-11-20T03:02:47;98537.16;;;16.84;100.00
19526;BME280;9907;42.676;26.348;2022-11-20T03:05:12;98524.84;;;16.82;100.00
19526;BME280;9907;42.676;26.348;2022-11-20T03:07:38;98523.84;;;16.83;100.00
19526;BME280;9907;42.676;26.348;2022-11-20T03:10:04;98527.53;;;16.82;100.00
19526;BME280;9907;42.676;26.348;2022-11-20T03:12:30;98524.22;;;16.80;100.00
19526;BME280;9907;42.676;26.348;2022-11-20T03:14:55;98524.22;;;16.80;100.00
19526;BME280;9907;42.676;26.348;2022-11-20T03:17:20;98537.53;;;16.81;100.00
19526;BME280;9907;42.676;26.348;2022-11-20T03:19:46;98541.25;;;16.80;100.00
19526;BME280;9907;42.676;26.348;2022-11-20T03:22:11;98535.84;;;16.80;100.00
19526;BME280;9907;42.676;26.348;2022-11-20T03:24:37;98535.47;;;16.83;100.00
19526;BME280;9907;42.676;26.348;2022-11-20T03:27:02;98522.59;;;16.85;100.00
19526;BME280;9907;42.676;26.348;2022-11-20T03:29:28;98521.31;;;16.96;100.00
19526;BME280;9907;42.676;26.348;2022-11-20T03:31:54;98519.31;;;17.04;100.00
19526;BME280;9907;42.676;26.348;2022-11-20T03:34:19;98509.28;;;16.98;100.00
19526;BME280;9907;42.676;26.348;2022-11-20T03:36:45;98510.50;;;16.96;100.00
19526;BME280;9907;42.676;26.348;2022-11-20T03:39:11;98504.06;;;16.97;100.00
19526;BME280;9907;42.676;26.348;2022-11-20T03:41:38;98515.91;;;16.96;100.00
19526;BME280;9907;42.676;26.348;2022-11-20T03:44:06;98508.16;;;16.93;100.00
19526;BME280;9907;42.676;26.348;2022-11-20T03:46:32;98510.25;;;16.91;100.00
19526;BME280;9907;42.676;26.348;2022-11-20T03:48:58;98502.31;;;16.89;100.00
19526;BME280;9907;42.676;26.348;2022-11-20T03:53:52;98503.63;;;16.93;100.00
19526;BME280;9907;42.676;26.348;2022-11-20T03:56:22;98495.97;;;16.97;100.00
19526;BME280;9907;42.676;26.348;2022-11-20T03:58:47;98502.41;;;16.96;100.00
19526;BME280;9907;42.676;26.348;2022-11-20T04:01:17;98497.84;;;16.96;100.00
19526;BME280;9907;42.676;26.348;2022-11-20T04:03:43;98491.63;;;16.96;100.00
19526;BME280;9907;42.676;26.348;2022-11-20T04:06:12;98497.03;;;16.96;100.00
19526;BME280;9907;42.676;26.348;2022-11-20T04:08:38;98478.31;;;16.94;100.00
19526;BME280;9907;42.676;26.348;2022-11-20T04:13:36;98468.38;;;16.95;100.00
19526;BME280;9907;42.676;26.348;2022-11-20T04:16:01;98474.41;;;16.97;100.00
19526;BME280;9907;42.676;26.348;2022-11-20T04:18:27;98484.22;;;17.04;100.00
19526;BME280;9907;42.676;26.348;2022-11-20T04:20:52;98496.19;;;17.17;100.00
19526;BME280;9907;42.676;26.348;2022-11-20T04:23:17;98495.94;;;17.12;100.00
19526;BME280;9907;42.676;26.348;2022-11-20T04:25:43;98495.47;;;17.08;100.00
19526;BME280;9907;42.676;26.348;2022-11-20T04:28:09;98497.94;;;17.03;100.00
19526;BME280;9907;42.676;26.348;2022-11-20T04:30:34;98499.13;;;17.00;100.00
19526;BME280;9907;42.676;26.348;2022-11-20T04:33:00;98487.88;;;16.97;100.00
19526;BME280;9907;42.676;26.348;2022-11-20T04:35:25;98486.41;;;16.94;100.00
19526;BME280;9907;42.676;26.348;2022-11-20T04:37:51;98502.16;;;16.91;100.00
19526;BME280;9907;42.676;26.348;2022-11-20T04:40:17;98500.47;;;16.90;100.00
19526;BME280;9907;42.676;26.348;2022-11-20T04:42:42;98501.47;;;16.89;100.00
19526;BME280;9907;42.676;26.348;2022-11-20T04:45:08;98498.78;;;16.89;100.00
19526;BME280;9907;42.676;26.348;2022-11-20T04:47:33;98508.56;;;16.90;100.00
19526;BME280;9907;42.676;26.348;2022-11-20T04:49:59;98507.94;;;16.88;100.00
19526;BME280;9907;42.676;26.348;2022-11-20T04:52:24;98512.66;;;16.86;100.00
19526;BME280;9907;42.676;26.348;2022-11-20T04:54:50;98507.47;;;16.84;100.00
19526;BME280;9907;42.676;26.348;2022-11-20T04:57:18;98511.19;;;16.83;100.00
19526;BME280;9907;42.676;26.348;2022-11-20T04:59:43;98512.03;;;16.84;100.00
19526;BME280;9907;42.676;26.348;2022-11-20T05:02:09;98512.19;;;16.82;100.00
19526;BME280;9907;42.676;26.348;2022-11-20T05:04:35;98523.00;;;16.82;100.00
19526;BME280;9907;42.676;26.348;2022-11-20T05:07:00;98528.38;;;16.82;100.00
19526;BME280;9907;42.676;26.348;2022-11-20T05:09:26;98522.16;;;16.82;100.00
19526;BME280;9907;42.676;26.348;2022-11-20T05:11:51;98530.44;;;16.80;100.00
19526;BME280;9907;42.676;26.348;2022-11-20T05:14:17;98518.81;;;16.80;100.00
19526;BME280;9907;42.676;26.348;2022-11-20T05:16:42;98520.50;;;16.81;100.00
19526;BME280;9907;42.676;26.348;2022-11-20T05:19:08;98521.50;;;16.80;100.00
19526;BME280;9907;42.676;26.348;2022-11-20T05:21:33;98529.59;;;16.80;100.00
19526;BME280;9907;42.676;26.348;2022-11-20T05:23:59;98527.94;;;16.79;100.00
19526;BME280;9907;42.676;26.348;2022-11-20T05:26:24;98527.94;;;16.79;100.00
19526;BME280;9907;42.676;26.348;2022-11-20T05:28:50;98531.47;;;16.79;100.00
19526;BME280;9907;42.676;26.348;2022-11-20T05:31:19;98518.81;;;16.80;100.00
19526;BME280;9907;42.676;26.348;2022-11-20T05:33:45;98519.44;;;16.82;100.00
19526;BME280;9907;42.676;26.348;2022-11-20T05:36:13;98527.53;;;16.82;100.00
19526;BME280;9907;42.676;26.348;2022-11-20T05:38:39;98541.88;;;16.82;100.00
19526;BME280;9907;42.676;26.348;2022-11-20T05:43:33;98546.41;;;16.82;100.00
19526;BME280;9907;42.676;26.348;2022-11-20T05:45:59;98542.91;;;16.81;100.00
19526;BME280;9907;42.676;26.348;2022-11-20T05:48:24;98543.72;;;16.82;100.00
19526;BME280;9907;42.676;26.348;2022-11-20T05:50:50;98547.47;;;16.81;100.00
19526;BME280;9907;42.676;26.348;2022-11-20T05:53:15;98542.91;;;16.81;100.00
19526;BME280;9907;42.676;26.348;2022-11-20T05:55:41;98541.88;;;16.82;100.00
19526;BME280;9907;42.676;26.348;2022-11-20T05:58:06;98552.47;;;16.84;100.00
19526;BME280;9907;42.676;26.348;2022-11-20T06:00:32;98554.34;;;16.83;100.00
19526;BME280;9907;42.676;26.348;2022-11-20T06:02:57;98559.56;;;16.85;100.00
19526;BME280;9907;42.676;26.348;2022-11-20T06:05:23;98545.88;;;16.86;100.00
19526;BME280;9907;42.676;26.348;2022-11-20T06:07:48;98571.81;;;16.87;100.00
19526;BME280;9907;42.676;26.348;2022-11-20T06:10:14;98556.28;;;16.89;100.00
19526;BME280;9907;42.676;26.348;2022-11-20T06:12:39;98558.97;;;16.89;100.00
19526;BME280;9907;42.676;26.348;2022-11-20T06:15:05;98573.28;;;16.90;100.00
19526;BME280;9907;42.676;26.348;2022-11-20T06:17:31;98575.81;;;16.91;100.00
19526;BME280;9907;42.676;26.348;2022-11-20T06:19:56;98575.63;;;16.93;100.00
19526;BME280;9907;42.676;26.348;2022-11-20T06:22:22;98569.19;;;16.94;100.00
19526;BME280;9907;42.676;26.348;2022-11-20T06:24:47;98570.50;;;16.98;100.00
19526;BME280;9907;42.676;26.348;2022-11-20T06:27:12;98569.47;;;16.99;100.00
19526;BME280;9907;42.676;26.348;2022-11-20T06:29:38;98563.88;;;17.00;100.00
19526;BME280;9907;42.676;26.348;2022-11-20T06:32:03;98571.78;;;17.02;100.00
19526;BME280;9907;42.676;26.348;2022-11-20T06:34:29;98576.81;;;17.05;100.00
19526;BME280;9907;42.676;26.348;2022-11-20T06:36:54;98578.50;;;17.06;100.00
19526;BME280;9907;42.676;26.348;2022-11-20T06:39:20;98565.63;;;17.08;100.00
19526;BME280;9907;42.676;26.348;2022-11-20T06:41:45;98562.53;;;17.11;100.00
19526;BME280;9907;42.676;26.348;2022-11-20T06:44:11;98574.84;;;17.14;100.00
19526;BME280;9907;42.676;26.348;2022-11-20T06:46:36;98570.75;;;17.18;100.00
19526;BME280;9907;42.676;26.348;2022-11-20T06:49:02;98575.75;;;17.21;100.00
19526;BME280;9907;42.676;26.348;2022-11-20T06:51:27;98579.91;;;17.23;100.00
19526;BME280;9907;42.676;26.348;2022-11-20T06:53:53;98583.63;;;17.22;100.00
19526;BME280;9907;42.676;26.348;2022-11-20T06:56:18;98573.50;;;17.24;100.00
19526;BME280;9907;42.676;26.348;2022-11-20T06:58:44;98576.84;;;17.26;100.00
19526;BME280;9907;42.676;26.348;2022-11-20T07:01:11;98581.22;;;17.27;100.00
19526;BME280;9907;42.676;26.348;2022-11-20T07:03:38;98581.88;;;17.29;100.00
19526;BME280;9907;42.676;26.348;2022-11-20T07:06:03;98585.38;;;17.30;100.00
19526;BME280;9907;42.676;26.348;2022-11-20T07:08:29;98597.03;;;17.30;100.00
19526;BME280;9907;42.676;26.348;2022-11-20T07:11:04;98597.03;;;17.30;100.00
19526;BME280;9907;42.676;26.348;2022-11-20T07:13:30;98602.25;;;17.32;100.00
19526;BME280;9907;42.676;26.348;2022-11-20T07:16:00;98597.69;;;17.32;100.00
19526;BME280;9907;42.676;26.348;2022-11-20T07:18:26;98602.03;;;17.33;100.00
19526;BME280;9907;42.676;26.348;2022-11-20T07:20:52;98605.41;;;17.35;100.00
19526;BME280;9907;42.676;26.348;2022-11-20T07:23:18;98601.47;;;17.38;100.00
19526;BME280;9907;42.676;26.348;2022-11-20T07:25:43;98609.19;;;17.41;100.00
19526;BME280;9907;42.676;26.348;2022-11-20T07:28:09;98606.31;;;17.42;100.00
19526;BME280;9907;42.676;26.348;2022-11-20T07:30:36;98600.53;;;17.45;100.00
19526;BME280;9907;42.676;26.348;2022-11-20T07:33:01;98602.81;;;17.48;100.00
19526;BME280;9907;42.676;26.348;2022-11-20T07:35:27;98606.19;;;17.50;100.00
19526;BME280;9907;42.676;26.348;2022-11-20T07:37:52;98598.09;;;17.50;100.00
19526;BME280;9907;42.676;26.348;2022-11-20T07:40:18;98603.50;;;17.50;100.00
19526;BME280;9907;42.676;26.348;2022-11-20T07:42:51;98598.09;;;17.50;100.00
19526;BME280;9907;42.676;26.348;2022-11-20T07:45:18;98595.38;;;17.50;100.00
19526;BME280;9907;42.676;26.348;2022-11-20T07:47:44;98594.34;;;17.51;100.00
19526;BME280;9907;42.676;26.348;2022-11-20T07:50:10;98594.34;;;17.51;100.00
19526;BME280;9907;42.676;26.348;2022-11-20T07:52:35;98586.91;;;17.53;100.00
19526;BME280;9907;42.676;26.348;2022-11-20T07:55:01;98597.34;;;17.57;100.00
19526;BME280;9907;42.676;26.348;2022-11-20T07:57:26;98589.59;;;17.53;100.00
19526;BME280;9907;42.676;26.348;2022-11-20T07:59:51;98584.50;;;17.59;100.00
19526;BME280;9907;42.676;26.348;2022-11-20T08:02:17;98580.56;;;17.61;100.00
19526;BME280;9907;42.676;26.348;2022-11-20T08:04:42;98574.59;;;17.66;100.00
19526;BME280;9907;42.676;26.348;2022-11-20T08:07:08;98571.28;;;17.70;100.00
19526;BME280;9907;42.676;26.348;2022-11-20T08:09:33;98568.81;;;17.69;100.00
19526;BME280;9907;42.676;26.348;2022-11-20T08:11:58;98558.19;;;17.67;100.00
19526;BME280;9907;42.676;26.348;2022-11-20T08:14:42;98572.97;;;17.71;100.00
19526;BME280;9907;42.676;26.348;2022-11-20T08:17:08;98572.78;;;17.73;100.00
19526;BME280;9907;42.676;26.348;2022-11-20T08:19:33;98561.97;;;17.73;100.00
19526;BME280;9907;42.676;26.348;2022-11-20T08:21:59;98570.94;;;17.73;100.00
19526;BME280;9907;42.676;26.348;2022-11-20T08:24:24;98561.78;;;17.74;100.00
19526;BME280;9907;42.676;26.348;2022-11-20T08:26:51;98556.19;;;17.76;100.00
19526;BME280;9907;42.676;26.348;2022-11-20T08:29:17;98560.56;;;17.77;100.00
19526;BME280;9907;42.676;26.348;2022-11-20T08:31:42;98557.22;;;17.75;100.00
19526;BME280;9907;42.676;26.348;2022-11-20T08:34:08;98561.59;;;17.76;100.00
19526;BME280;9907;42.676;26.348;2022-11-20T08:36:34;98562.44;;;17.76;100.00
19526;BME280;9907;42.676;26.348;2022-11-20T08:39:00;98565.31;;;17.75;100.00
19526;BME280;9907;42.676;26.348;2022-11-20T08:41:25;98560.94;;;17.74;100.00
19526;BME280;9907;42.676;26.348;2022-11-20T08:44:01;98559.91;;;17.75;100.00
19526;BME280;9907;42.676;26.348;2022-11-20T08:46:32;98568.47;;;17.78;100.00
19526;BME280;9907;42.676;26.348;2022-11-20T08:49:09;98566.22;;;17.82;100.00
19526;BME280;9907;42.676;26.348;2022-11-20T08:51:35;98564.75;;;17.79;100.00
19526;BME280;9907;42.676;26.348;2022-11-20T08:54:01;98563.72;;;17.80;100.00
19526;BME280;9907;42.676;26.348;2022-11-20T08:56:27;98561.63;;;17.82;100.00
19526;BME280;9907;42.676;26.348;2022-11-20T08:58:53;98558.09;;;17.82;100.00
19526;BME280;9907;42.676;26.348;2022-11-20T09:01:19;98559.78;;;17.83;100.00
19526;BME280;9907;42.676;26.348;2022-11-20T09:03:45;98558.75;;;17.84;100.00
19526;BME280;9907;42.676;26.348;2022-11-20T09:06:11;98555.16;;;17.77;100.00
19526;BME280;9907;42.676;26.348;2022-11-20T09:08:37;98567.16;;;17.74;100.00
19526;BME280;9907;42.676;26.348;2022-11-20T09:11:03;98555.16;;;17.77;100.00
19526;BME280;9907;42.676;26.348;2022-11-20T09:13:29;98547.91;;;17.77;100.00
19526;BME280;9907;42.676;26.348;2022-11-20T09:15:56;98543.13;;;17.79;100.00
19526;BME280;9907;42.676;26.348;2022-11-20T09:18:23;98540.25;;;17.81;100.00
19526;BME280;9907;42.676;26.348;2022-11-20T09:20:49;98532.38;;;17.86;100.00
19526;BME280;9907;42.676;26.348;2022-11-20T09:23:15;98516.41;;;17.91;100.00
19526;BME280;9907;42.676;26.348;2022-11-20T09:25:41;98517.88;;;17.93;100.00
19526;BME280;9907;42.676;26.348;2022-11-20T09:28:07;98509.59;;;17.95;100.00
19526;BME280;9907;42.676;26.348;2022-11-20T09:30:32;98511.44;;;17.94;100.00
19526;BME280;9907;42.676;26.348;2022-11-20T09:32:58;98501.50;;;17.95;100.00
19526;BME280;9907;42.676;26.348;2022-11-20T09:35:23;98497.09;;;17.94;100.00
19526;BME280;9907;42.676;26.348;2022-11-20T09:37:49;98500.44;;;17.96;100.00
19526;BME280;9907;42.676;26.348;2022-11-20T09:40:22;98493.38;;;17.95;100.00
19526;BME280;9907;42.676;26.348;2022-11-20T09:43:16;98485.91;;;17.97;100.00
19526;BME280;9907;42.676;26.348;2022-11-20T09:48:26;98478.63;;;17.97;100.00
19526;BME280;9907;42.676;26.348;2022-11-20T09:51:03;98476.59;;;17.99;100.00
19526;BME280;9907;42.676;26.348;2022-11-20T09:56:20;98484.88;;;17.98;100.00
19526;BME280;9907;42.676;26.348;2022-11-20T09:58:51;98484.03;;;17.97;100.00
19526;BME280;9907;42.676;26.348;2022-11-20T10:01:19;98479.47;;;17.98;100.00
19526;BME280;9907;42.676;26.348;2022-11-20T10:06:19;98471.97;;;18.00;100.00
19526;BME280;9907;42.676;26.348;2022-11-20T10:14:24;98458.88;;;17.97;100.00
19526;BME280;9907;42.676;26.348;2022-11-20T10:19:28;98456.56;;;17.94;100.00
19526;BME280;9907;42.676;26.348;2022-11-20T10:24:56;98443.69;;;17.96;100.00
19526;BME280;9907;42.676;26.348;2022-11-20T10:30:15;98446.31;;;18.11;100.00
19526;BME280;9907;42.676;26.348;2022-11-20T10:33:04;98448.19;;;18.17;100.00
19526;BME280;9907;42.676;26.348;2022-11-20T10:38:02;98446.94;;;18.19;100.00
19526;BME280;9907;42.676;26.348;2022-11-20T10:40:38;98455.50;;;18.23;100.00
19526;BME280;9907;42.676;26.348;2022-11-20T10:43:21;98450.75;;;18.31;100.00
19526;BME280;9907;42.676;26.348;2022-11-20T10:46:16;98456.19;;;18.31;100.00
19526;BME280;9907;42.676;26.348;2022-11-20T10:48:43;98452.88;;;18.36;100.00
19526;BME280;9907;42.676;26.348;2022-11-20T10:57:04;98467.03;;;18.44;100.00
19526;BME280;9907;42.676;26.348;2022-11-20T11:02:16;98457.94;;;18.52;100.00
19526;BME280;9907;42.676;26.348;2022-11-20T11:04:47;98448.34;;;18.49;100.00
19526;BME280;9907;42.676;26.348;2022-11-20T11:07:40;98459.16;;;18.49;100.00
19526;BME280;9907;42.676;26.348;2022-11-20T11:10:36;98449.38;;;18.48;100.00
19526;BME280;9907;42.676;26.348;2022-11-20T11:13:00;98449.59;;;18.47;100.00
19526;BME280;9907;42.676;26.348;2022-11-20T11:15:37;98441.06;;;18.50;100.00
19526;BME280;9907;42.676;26.348;2022-11-20T11:18:03;98438.00;;;18.53;100.00
19526;BME280;9907;42.676;26.348;2022-11-20T11:20:29;98434.03;;;18.56;100.00
19526;BME280;9907;42.676;26.348;2022-11-20T11:22:58;98426.75;;;18.56;100.00
19526;BME280;9907;42.676;26.348;2022-11-20T11:25:30;98437.41;;;18.58;100.00
19526;BME280;9907;42.676;26.348;2022-11-20T11:28:24;98438.41;;;18.57;100.00
19526;BME280;9907;42.676;26.348;2022-11-20T11:30:51;98435.28;;;18.53;100.00
19526;BME280;9907;42.676;26.348;2022-11-20T11:33:22;98433.63;;;18.52;100.00
19526;BME280;9907;42.676;26.348;2022-11-20T11:35:54;98425.69;;;18.51;100.00
19526;BME280;9907;42.676;26.348;2022-11-20T11:38:40;98415.75;;;18.51;100.00
19526;BME280;9907;42.676;26.348;2022-11-20T11:41:07;98417.56;;;18.51;100.00
19526;BME280;9907;42.676;26.348;2022-11-20T11:43:36;98420.09;;;18.52;100.00
19526;BME280;9907;42.676;26.348;2022-11-20T11:46:34;98421.97;;;18.52;100.00
19526;BME280;9907;42.676;26.348;2022-11-20T11:52:10;98405.97;;;18.57;100.00
19526;BME280;9907;42.676;26.348;2022-11-20T11:54:58;98405.97;;;18.57;100.00
19526;BME280;9907;42.676;26.348;2022-11-20T12:00:01;98391.81;;;18.55;100.00
19526;BME280;9907;42.676;26.348;2022-11-20T12:07:54;98380.19;;;18.61;100.00
19526;BME280;9907;42.676;26.348;2022-11-20T12:13:37;98387.69;;;18.59;100.00
19526;BME280;9907;42.676;26.348;2022-11-20T12:16:07;98380.38;;;18.59;100.00
19526;BME280;9907;42.676;26.348;2022-11-20T12:18:34;98382.06;;;18.60;100.00
19526;BME280;9907;42.676;26.348;2022-11-20T12:29:35;98359.81;;;18.65;100.00
19526;BME280;9907;42.676;26.348;2022-11-20T12:35:20;98371.25;;;18.67;100.00
19526;BME280;9907;42.676;26.348;2022-11-20T12:43:39;98365.88;;;18.80;100.00
19526;BME280;9907;42.676;26.348;2022-11-20T12:46:44;98370.88;;;18.83;100.00
19526;BME280;9907;42.676;26.348;2022-11-20T12:49:48;98370.69;;;18.84;100.00
19526;BME280;9907;42.676;26.348;2022-11-20T12:52:17;98370.44;;;18.86;100.00
19526;BME280;9907;42.676;26.348;2022-11-20T13:00:08;98352.53;;;18.85;100.00
19526;BME280;9907;42.676;26.348;2022-11-20T13:07:53;98368.78;;;18.85;100.00
19526;BME280;9907;42.676;26.348;2022-11-20T13:10:41;98351.50;;;18.86;100.00
19526;BME280;9907;42.676;26.348;2022-11-20T13:18:45;98339.22;;;18.90;96.86
19526;BME280;9907;42.676;26.348;2022-11-20T13:21:15;98334.44;;;18.92;97.19
19526;BME280;9907;42.676;26.348;2022-11-20T13:23:42;98336.94;;;18.93;96.48
19526;BME280;9907;42.676;26.348;2022-11-20T13:26:17;98330.50;;;18.94;96.83
19526;BME280;9907;42.676;26.348;2022-11-20T13:28:58;98332.38;;;18.94;95.69
19526;BME280;9907;42.676;26.348;2022-11-20T13:31:33;98332.78;;;18.91;93.96
19526;BME280;9907;42.676;26.348;2022-11-20T13:34:03;98324.88;;;18.89;94.49
19526;BME280;9907;42.676;26.348;2022-11-20T13:36:30;98326.97;;;18.87;94.03
19526;BME280;9907;42.676;26.348;2022-11-20T13:39:05;98330.69;;;18.86;93.74
19526;BME280;9907;42.676;26.348;2022-11-20T13:41:36;98323.63;;;18.85;94.40
19526;BME280;9907;42.676;26.348;2022-11-20T13:44:14;98328.00;;;18.86;92.86
19526;BME280;9907;42.676;26.348;2022-11-20T13:46:45;98333.59;;;18.85;92.44
19526;BME280;9907;42.676;26.348;2022-11-20T13:57:09;98330.47;;;18.75;94.48
19526;BME280;9907;42.676;26.348;2022-11-20T14:00:15;98325.47;;;18.72;94.66
19526;BME280;9907;42.676;26.348;2022-11-20T14:02:41;98314.84;;;18.70;94.93
19526;BME280;9907;42.676;26.348;2022-11-20T14:05:17;98320.28;;;18.70;93.79
19526;BME280;9907;42.676;26.348;2022-11-20T14:07:45;98320.50;;;18.69;95.02
19526;BME280;9907;42.676;26.348;2022-11-20T14:10:25;98315.69;;;18.71;95.76
19526;BME280;9907;42.676;26.348;2022-11-20T14:12:51;98315.69;;;18.71;97.26
19526;BME280;9907;42.676;26.348;2022-11-20T14:15:43;98323.19;;;18.69;96.36
19526;BME280;9907;42.676;26.348;2022-11-20T14:18:20;98325.25;;;18.67;95.78
19526;BME280;9907;42.676;26.348;2022-11-20T14:20:47;98321.94;;;18.65;95.04
19526;BME280;9907;42.676;26.348;2022-11-20T14:23:12;98315.28;;;18.61;95.99
19526;BME280;9907;42.676;26.348;2022-11-20T14:25:42;98313.81;;;18.58;96.42
19526;BME280;9907;42.676;26.348;2022-11-20T14:28:17;98310.28;;;18.58;92.93
19526;BME280;9907;42.676;26.348;2022-11-20T14:30:47;98319.84;;;18.54;94.76
19526;BME280;9907;42.676;26.348;2022-11-20T14:33:14;98314.63;;;18.52;95.39
19526;BME280;9907;42.676;26.348;2022-11-20T14:35:58;98315.22;;;18.47;95.26
19526;BME280;9907;42.676;26.348;2022-11-20T14:38:26;98305.84;;;18.43;95.50
19526;BME280;9907;42.676;26.348;2022-11-20T14:40:52;98315.84;;;18.43;92.36